createdAt,value
2024-02-02T00:10:43.969Z,66.76
2024-02-02T00:30:45.329Z,67.61
2024-02-02T00:50:46.975Z,67.39
2024-02-02T01:10:48.562Z,68.45
2024-02-02T01:30:49.939Z,69.33
2024-02-02T01:50:51.299Z,69.30
2024-02-02T02:10:52.796Z,69.05
2024-02-02T02:30:54.144Z,69.16
2024-02-02T02:50:55.654Z,69.00
2024-02-02T03:10:57.231Z,68.46
2024-02-02T03:30:59.014Z,69.07
2024-02-02T03:51:00.528Z,69.43
2024-02-02T04:11:02.027Z,69.80
2024-02-02T04:31:04.056Z,70.31
2024-02-02T04:51:05.401Z,70.01
2024-02-02T05:11:06.769Z,70.55
2024-02-02T05:31:08.337Z,71.47
2024-02-02T05:51:09.812Z,72.48
2024-02-02T06:11:11.511Z,72.78
2024-02-02T06:31:13.055Z,73.79
2024-02-02T06:51:14.403Z,73.91
2024-02-02T07:11:15.879Z,74.42
2024-02-02T07:31:17.268Z,74.46
2024-02-02T07:51:18.653Z,74.92
2024-02-02T08:11:20.151Z,74.55
2024-02-02T08:31:21.661Z,74.79
2024-02-02T08:51:23.306Z,74.46
2024-02-02T09:11:24.911Z,73.53
2024-02-02T09:31:26.340Z,72.62
2024-02-02T09:51:27.728Z,72.36
2024-02-02T10:11:29.113Z,71.42
2024-02-02T10:31:30.456Z,71.43
2024-02-02T10:51:31.953Z,71.18
2024-02-02T11:11:33.473Z,71.62
2024-02-02T11:31:35.274Z,71.13
2024-02-02T11:51:36.707Z,70.30
2024-02-02T12:11:44.082Z,70.49
2024-02-02T12:31:46.457Z,70.28
2024-02-02T12:51:47.840Z,71.29
2024-02-02T13:11:49.538Z,72.30
2024-02-02T13:31:50.948Z,73.69
2024-02-02T13:51:52.313Z,75.18
2024-02-02T14:11:53.685Z,77.13
2024-02-02T14:31:55.503Z,78.80
2024-02-02T14:51:57.225Z,80.16
2024-02-02T15:12:04.380Z,80.95
2024-02-02T15:32:07.149Z,82.85
2024-02-02T15:52:08.724Z,84.27
2024-02-02T16:12:10.385Z,84.97
2024-02-02T16:32:12.054Z,86.10
2024-02-02T16:52:13.650Z,87.30
2024-02-02T17:12:15.134Z,87.97
2024-02-02T17:32:17.816Z,88.41
2024-02-02T17:52:19.656Z,88.31
2024-02-02T18:12:21.081Z,88.63
2024-02-02T18:32:22.697Z,89.20
2024-02-02T18:52:24.055Z,89.33
2024-02-02T19:12:25.413Z,90.37
2024-02-02T19:32:27.066Z,90.69
2024-02-02T19:52:28.439Z,91.12
2024-02-02T20:12:29.927Z,91.25
2024-02-02T20:32:31.387Z,91.61
2024-02-02T20:52:32.896Z,91.90
2024-02-02T21:12:34.296Z,91.55
2024-02-02T21:32:35.783Z,91.90
2024-02-02T21:52:37.297Z,92.28
2024-02-02T22:12:38.745Z,92.23
2024-02-02T22:32:40.306Z,92.24
2024-02-02T22:52:41.871Z,92.32
2024-02-02T23:12:43.485Z,92.23
2024-02-02T23:32:45.051Z,92.10
2024-02-02T23:52:46.447Z,92.37
